This is the latest recevied weather packets stored in our database for station/object SQ7FJB-2. If no packets are shown the sender has not sent any weather packets the latest 1 day(s).
| Time | Temp. | Humidity | Pressure | Rain* | Wind** | Luminosity | Snow |
|---|---|---|---|---|---|---|---|
| 1778002253 | 22.22° C | 31% | 1004.2 hPa | 0 mm | 0 m/s | - | - |
| 1778001653 | 22.78° C | 31% | 1004.2 hPa | 0 mm | 0 m/s | - | - |
| 1778001041 | 24.44° C | 26% | 1004.2 hPa | 0 mm | 0 m/s | - | - |
| 1778000429 | 24.44° C | 25% | 1004.1 hPa | 0 mm | 0 m/s | - | - |
| 1777999828 | 24.44° C | 24% | 1004.1 hPa | 0 mm | 0.45 m/s, 228° | - | - |
| 1777999228 | 25° C | 23% | 1004.2 hPa | 0 mm | 0.45 m/s, 186° | - | - |
| 1777998616 | 25.56° C | 23% | 1004.2 hPa | 0 mm | 0.89 m/s, 264° | - | - |
| 1777998015 | 25.56° C | 22% | 1004.3 hPa | 0 mm | 0.89 m/s, 240° | - | - |
| 1777997403 | 26.11° C | 21% | 1004.3 hPa | 0 mm | 1.34 m/s, 156° | - | - |
| 1777996791 | 26.11° C | 22% | 1004.4 hPa | 0 mm | 1.79 m/s, 197° | - | - |
| 1777996178 | 26.67° C | 23% | 1004.4 hPa | 0 mm | 1.34 m/s, 172° | - | - |
| 1777995578 | 26.67° C | 23% | 1004.4 hPa | 0 mm | 1.79 m/s, 139° | - | - |
| 1777994966 | 26.67° C | 22% | 1004.4 hPa | 0 mm | 1.34 m/s, 152° | - | - |
| 1777994353 | 26.67° C | 23% | 1004.5 hPa | 0 mm | 1.79 m/s, 144° | - | - |
| 1777993753 | 26.11° C | 24% | 1004.5 hPa | 0 mm | 1.34 m/s, 168° | - | - |
| 1777993153 | 26.11° C | 24% | 1004.6 hPa | 0 mm | 1.79 m/s, 128° | - | - |
| 1777992541 | 26.67° C | 25% | 1004.7 hPa | 0 mm | 1.79 m/s, 174° | - | - |
| 1777991941 | 26.11° C | 26% | 1004.8 hPa | 0 mm | 0.45 m/s, 139° | - | - |
| 1777991340 | 25.56° C | 26% | 1004.8 hPa | 0 mm | 1.34 m/s, 138° | - | - |
| 1777990728 | 26.11° C | 25% | 1005 hPa | 0 mm | 3.13 m/s, 168° | - | - |
| 1777990128 | 25.56° C | 26% | 1005 hPa | 0 mm | 1.34 m/s, 156° | - | - |
| 1777989503 | 26.11° C | 27% | 1005.1 hPa | 0 mm | 2.68 m/s, 132° | - | - |
| 1777988903 | 26.11° C | 27% | 1005.2 hPa | 0 mm | 1.79 m/s, 152° | - | - |
| 1777988291 | 26.11° C | 29% | 1005.4 hPa | 0 mm | 0.89 m/s, 162° | - | - |
| 1777987691 | 26.11° C | 26% | 1005.5 hPa | 0 mm | 0.89 m/s, 157° | - | - |
* Rain latest hour (hover to see other rain measurements)
** Current wind speed in m/s (hover to see current wind gust speed)